createdAt,value
2023-07-06T00:00:35.780Z,75.15
2023-07-06T00:01:35.805Z,73.91
2023-07-06T00:02:35.891Z,75.03
2023-07-06T00:03:35.953Z,74.45
2023-07-06T00:04:35.948Z,75.34
2023-07-06T00:05:35.904Z,74.21
2023-07-06T00:06:35.922Z,74.37
2023-07-06T00:07:35.927Z,74.15
2023-07-06T00:08:35.975Z,73.55
2023-07-06T00:09:36.057Z,73.20
2023-07-06T00:10:36.218Z,75.11
2023-07-06T00:11:36.279Z,74.19
2023-07-06T00:12:36.261Z,75.30
2023-07-06T00:13:36.445Z,75.02
2023-07-06T00:14:36.481Z,76.01
2023-07-06T00:15:36.475Z,74.35
2023-07-06T00:16:36.565Z,74.18
2023-07-06T00:17:36.536Z,74.83
2023-07-06T00:18:36.507Z,74.49
2023-07-06T00:19:36.499Z,74.48
2023-07-06T00:20:36.794Z,74.64
2023-07-06T00:21:36.586Z,73.60
2023-07-06T00:22:36.580Z,74.31
2023-07-06T00:23:36.534Z,73.80
2023-07-06T00:24:36.570Z,75.02
2023-07-06T00:25:36.540Z,74.18
2023-07-06T00:26:36.663Z,75.46
2023-07-06T00:27:36.807Z,76.60
2023-07-06T00:28:36.849Z,75.59
2023-07-06T00:29:37.011Z,74.87
2023-07-06T00:30:37.058Z,75.20
2023-07-06T00:31:37.148Z,73.80
2023-07-06T00:32:37.081Z,74.63
2023-07-06T00:33:37.078Z,75.27
2023-07-06T00:34:37.079Z,74.36
2023-07-06T00:35:37.156Z,75.02
2023-07-06T00:36:37.261Z,74.39
2023-07-06T00:37:37.218Z,74.64
2023-07-06T00:38:37.245Z,73.63
2023-07-06T00:39:37.267Z,73.77
2023-07-06T00:40:37.268Z,74.35
2023-07-06T00:41:37.278Z,75.76
2023-07-06T00:42:39.103Z,73.53
2023-07-06T00:43:38.330Z,73.68
2023-07-06T00:44:37.379Z,73.91
2023-07-06T00:45:37.416Z,74.16
2023-07-06T00:46:37.390Z,74.64
2023-07-06T00:47:37.397Z,74.46
2023-07-06T00:48:37.331Z,74.89
2023-07-06T00:49:37.303Z,73.37
2023-07-06T00:50:37.295Z,74.00
2023-07-06T00:51:37.281Z,72.25
2023-07-06T00:52:37.314Z,73.95
2023-07-06T00:53:37.265Z,72.42
2023-07-06T00:54:37.271Z,73.25
2023-07-06T00:55:37.281Z,73.23
2023-07-06T00:56:37.246Z,73.22
2023-07-06T00:57:37.222Z,72.43
2023-07-06T00:58:37.256Z,72.73
2023-07-06T00:59:37.280Z,72.68
2023-07-06T01:00:37.270Z,73.42
2023-07-06T01:01:37.389Z,71.77
2023-07-06T01:02:38.195Z,72.85
2023-07-06T01:03:37.405Z,71.93
2023-07-06T01:04:37.326Z,70.07
2023-07-06T01:05:37.340Z,71.48
2023-07-06T01:06:37.422Z,70.54
2023-07-06T01:07:37.418Z,71.77
2023-07-06T01:08:37.522Z,70.32
2023-07-06T01:09:37.541Z,71.42
2023-07-06T01:10:37.551Z,69.18
2023-07-06T01:11:37.598Z,71.37
2023-07-06T01:12:37.542Z,69.65
2023-07-06T01:13:37.628Z,70.72
2023-07-06T01:14:37.678Z,71.90
2023-07-06T01:15:37.781Z,69.81
2023-07-06T01:16:37.778Z,71.39
2023-07-06T01:17:37.729Z,70.75
2023-07-06T01:18:37.731Z,70.31
2023-07-06T01:19:38.087Z,69.28
2023-07-06T01:20:37.946Z,69.67
2023-07-06T01:21:38.090Z,70.72
2023-07-06T01:22:38.151Z,69.39
2023-07-06T01:23:38.230Z,69.25
2023-07-06T01:24:38.284Z,69.97
2023-07-06T01:25:38.301Z,71.07
2023-07-06T01:26:38.304Z,68.56
2023-07-06T01:27:38.344Z,70.69
2023-07-06T01:28:38.350Z,69.25
2023-07-06T01:29:38.517Z,68.51
2023-07-06T01:30:38.652Z,69.02
2023-07-06T01:31:38.540Z,69.24
2023-07-06T01:32:38.785Z,68.29
2023-07-06T01:33:38.557Z,69.04
2023-07-06T01:34:38.519Z,68.54
2023-07-06T01:35:38.505Z,69.70
2023-07-06T01:36:38.574Z,69.56
2023-07-06T01:37:38.610Z,68.30
2023-07-06T01:38:38.653Z,70.95
2023-07-06T01:39:39.044Z,68.72
2023-07-06T01:40:38.675Z,68.57
2023-07-06T01:41:38.681Z,68.42
2023-07-06T01:42:38.713Z,68.77
2023-07-06T01:43:38.728Z,70.42
2023-07-06T01:44:38.724Z,69.87
2023-07-06T01:45:38.848Z,69.54
2023-07-06T01:46:38.862Z,69.17
2023-07-06T01:47:38.962Z,69.79
2023-07-06T01:48:38.862Z,69.23
2023-07-06T01:49:38.903Z,69.38
2023-07-06T01:50:38.932Z,70.02
2023-07-06T01:51:38.967Z,69.61
2023-07-06T01:52:38.996Z,68.17
2023-07-06T01:53:39.172Z,70.82
2023-07-06T01:54:39.626Z,68.85
2023-07-06T01:55:39.127Z,69.57
2023-07-06T01:56:39.073Z,69.63
2023-07-06T01:57:51.630Z,70.66
2023-07-06T01:58:40.054Z,70.73
2023-07-06T01:59:39.077Z,70.79
2023-07-06T02:00:39.138Z,70.54
2023-07-06T02:01:39.012Z,71.01
2023-07-06T02:02:39.127Z,69.92
2023-07-06T02:03:39.032Z,68.59
2023-07-06T02:04:39.044Z,68.99
2023-07-06T02:05:39.084Z,69.40
2023-07-06T02:06:39.087Z,69.51
2023-07-06T02:07:39.395Z,69.26
2023-07-06T02:08:39.000Z,67.93
2023-07-06T02:09:38.996Z,68.94
2023-07-06T02:10:39.002Z,68.36
2023-07-06T02:11:38.984Z,68.48
2023-07-06T02:12:39.005Z,67.76
2023-07-06T02:13:38.955Z,69.06
2023-07-06T02:14:38.933Z,66.68
2023-07-06T02:15:38.954Z,68.35
2023-07-06T02:16:39.107Z,69.63
2023-07-06T02:17:39.059Z,66.60
2023-07-06T02:18:38.968Z,68.22
2023-07-06T02:19:38.976Z,67.36
2023-07-06T02:20:39.657Z,68.06
2023-07-06T02:21:38.940Z,68.12
2023-07-06T02:22:38.901Z,67.41
2023-07-06T02:23:38.976Z,68.03
2023-07-06T02:24:39.021Z,67.11
2023-07-06T02:25:39.018Z,66.73
2023-07-06T02:26:39.118Z,69.58
2023-07-06T02:27:39.074Z,67.89
2023-07-06T02:28:39.146Z,68.14
2023-07-06T02:29:39.095Z,67.31
2023-07-06T02:30:39.185Z,67.54
2023-07-06T02:31:39.161Z,67.37
2023-07-06T02:32:39.225Z,66.61
2023-07-06T02:33:39.177Z,66.94
2023-07-06T02:34:39.222Z,67.24
2023-07-06T02:35:39.192Z,65.93
2023-07-06T02:36:39.292Z,67.50
2023-07-06T02:37:39.691Z,68.27
2023-07-06T02:38:39.294Z,66.87
2023-07-06T02:39:39.422Z,65.90
2023-07-06T02:40:39.403Z,68.21
2023-07-06T02:41:39.381Z,68.16
2023-07-06T02:42:39.447Z,68.89
2023-07-06T02:43:39.460Z,65.52
2023-07-06T02:44:39.506Z,66.12
2023-07-06T02:45:39.509Z,65.82
2023-07-06T02:46:39.617Z,66.81
2023-07-06T02:47:40.095Z,67.78
2023-07-06T02:48:39.590Z,68.33
2023-07-06T02:49:39.701Z,66.69
2023-07-06T02:50:39.649Z,67.32
2023-07-06T02:51:39.677Z,68.34
2023-07-06T02:52:39.724Z,66.02
2023-07-06T02:53:39.825Z,67.16
2023-07-06T02:54:39.769Z,65.63
2023-07-06T02:55:39.727Z,66.67
2023-07-06T02:56:39.789Z,66.26
2023-07-06T02:57:39.798Z,65.45
2023-07-06T02:58:39.874Z,66.20
2023-07-06T02:59:39.853Z,64.96
2023-07-06T03:00:39.929Z,66.31
2023-07-06T03:01:39.978Z,66.05
2023-07-06T03:02:39.982Z,66.26
2023-07-06T03:03:39.935Z,64.95
2023-07-06T03:04:39.979Z,65.15
2023-07-06T03:05:40.210Z,66.64
2023-07-06T03:06:40.072Z,65.72
2023-07-06T03:07:40.147Z,67.34
2023-07-06T03:08:40.123Z,66.20
2023-07-06T03:09:40.118Z,65.86
2023-07-06T03:10:40.254Z,65.59
2023-07-06T03:11:40.197Z,65.94
2023-07-06T03:12:40.331Z,65.94
2023-07-06T03:13:40.259Z,65.93
2023-07-06T03:14:40.318Z,65.82
2023-07-06T03:15:40.327Z,66.99
2023-07-06T03:16:40.415Z,66.86
2023-07-06T03:17:40.468Z,65.09
2023-07-06T03:18:40.383Z,67.48
2023-07-06T03:19:40.489Z,65.97
2023-07-06T03:20:40.505Z,66.04
2023-07-06T03:21:40.723Z,66.20
2023-07-06T03:22:40.520Z,64.39
2023-07-06T03:23:40.597Z,65.22
2023-07-06T03:24:40.634Z,66.05
2023-07-06T03:25:40.761Z,66.62
2023-07-06T03:26:40.740Z,66.42
2023-07-06T03:27:40.712Z,65.58
2023-07-06T03:28:41.166Z,66.08
2023-07-06T03:29:40.776Z,65.37
2023-07-06T03:30:40.810Z,65.69
2023-07-06T03:31:40.891Z,66.13
2023-07-06T03:32:40.913Z,65.60
2023-07-06T03:33:40.900Z,67.15
2023-07-06T03:34:40.923Z,67.39
2023-07-06T03:35:40.972Z,68.29
2023-07-06T03:36:40.989Z,65.85
2023-07-06T03:37:40.988Z,67.72
2023-07-06T03:38:41.040Z,67.46
2023-07-06T03:39:41.040Z,66.21
2023-07-06T03:40:41.098Z,68.47
2023-07-06T03:41:41.161Z,66.92
2023-07-06T03:42:41.185Z,66.15
2023-07-06T03:43:42.205Z,65.62
2023-07-06T03:44:41.249Z,65.48
2023-07-06T03:45:41.273Z,66.64
2023-07-06T03:46:41.306Z,64.63
2023-07-06T03:47:41.371Z,67.14
2023-07-06T03:48:41.368Z,67.22
2023-07-06T03:49:41.429Z,66.16
2023-07-06T03:50:41.434Z,64.13
2023-07-06T03:51:41.498Z,65.60
2023-07-06T03:52:41.532Z,65.24
2023-07-06T03:53:41.514Z,64.94
2023-07-06T03:54:41.617Z,67.63
2023-07-06T03:55:41.578Z,65.23
2023-07-06T03:56:41.624Z,66.47
2023-07-06T03:57:54.654Z,66.52
2023-07-06T03:58:42.684Z,66.58
2023-07-06T03:59:41.649Z,66.67
2023-07-06T04:00:41.653Z,66.96
2023-07-06T04:01:41.655Z,66.69
2023-07-06T04:02:41.646Z,66.37
2023-07-06T04:03:41.646Z,66.16
2023-07-06T04:04:41.694Z,64.55
2023-07-06T04:05:41.644Z,63.12
2023-07-06T04:06:41.713Z,64.22
2023-07-06T04:07:41.607Z,62.66
2023-07-06T04:08:43.268Z,62.69
2023-07-06T04:09:41.557Z,61.18
2023-07-06T04:10:41.561Z,61.43
2023-07-06T04:11:41.584Z,57.45
2023-07-06T04:12:41.496Z,56.56
2023-07-06T04:13:41.622Z,54.15
2023-07-06T04:14:41.598Z,55.99
2023-07-06T04:15:41.729Z,55.97
2023-07-06T04:16:41.781Z,54.67
2023-07-06T04:17:41.980Z,53.00
2023-07-06T04:18:41.708Z,53.27
2023-07-06T04:19:41.778Z,50.18
2023-07-06T04:20:41.841Z,48.62
2023-07-06T04:21:41.843Z,46.84
2023-07-06T04:22:41.900Z,45.48
2023-07-06T04:23:43.945Z,46.38
2023-07-06T04:24:41.935Z,46.70
2023-07-06T04:25:41.937Z,48.11
2023-07-06T04:26:41.878Z,45.79
2023-07-06T04:27:42.058Z,45.00
2023-07-06T04:28:41.966Z,45.38
2023-07-06T04:29:41.893Z,44.79
2023-07-06T04:30:41.862Z,45.60
2023-07-06T04:31:41.950Z,41.55
2023-07-06T04:32:41.894Z,42.56
2023-07-06T04:33:41.887Z,41.76
2023-07-06T04:34:41.839Z,43.73
2023-07-06T04:35:41.839Z,41.87
2023-07-06T04:36:41.859Z,43.73
2023-07-06T04:37:41.899Z,42.79
2023-07-06T04:38:41.845Z,44.26
2023-07-06T04:39:41.852Z,43.57
2023-07-06T04:40:41.825Z,44.69
2023-07-06T04:41:41.772Z,44.83
2023-07-06T04:42:41.791Z,43.73
2023-07-06T04:43:41.790Z,40.87
2023-07-06T04:44:41.760Z,44.85
2023-07-06T04:45:41.786Z,44.21
2023-07-06T04:46:41.795Z,43.89
2023-07-06T04:47:41.872Z,45.18
2023-07-06T04:48:41.713Z,43.07
2023-07-06T04:49:41.795Z,44.42
2023-07-06T04:50:41.826Z,44.57
2023-07-06T04:51:41.741Z,44.78
2023-07-06T04:52:41.712Z,44.27
2023-07-06T04:53:41.751Z,45.20
2023-07-06T04:54:41.710Z,45.18
2023-07-06T04:55:41.689Z,43.85
2023-07-06T04:56:41.671Z,45.15
2023-07-06T04:57:41.678Z,45.36
2023-07-06T04:58:41.788Z,46.46
2023-07-06T04:59:41.692Z,44.10
2023-07-06T05:00:41.758Z,45.16
2023-07-06T05:01:41.659Z,44.73
2023-07-06T05:02:41.707Z,44.34
2023-07-06T05:03:41.687Z,46.89
2023-07-06T05:04:41.634Z,46.84
2023-07-06T05:05:42.079Z,46.13
2023-07-06T05:06:41.640Z,46.54
2023-07-06T05:07:41.605Z,45.14
2023-07-06T05:08:41.642Z,46.91
2023-07-06T05:09:41.633Z,47.11
2023-07-06T05:10:41.656Z,47.73
2023-07-06T05:11:41.635Z,47.52
2023-07-06T05:12:41.585Z,48.95
2023-07-06T05:13:41.897Z,47.19
2023-07-06T05:14:41.748Z,46.24
2023-07-06T05:15:41.544Z,48.91
2023-07-06T05:16:41.669Z,47.85
2023-07-06T05:17:41.604Z,46.75
2023-07-06T05:18:41.576Z,48.49
2023-07-06T05:19:41.551Z,47.82
2023-07-06T05:20:41.593Z,47.09
2023-07-06T05:21:41.554Z,49.17
2023-07-06T05:22:41.645Z,45.83
2023-07-06T05:23:41.656Z,47.78
2023-07-06T05:24:41.677Z,47.77
2023-07-06T05:25:41.680Z,47.02
2023-07-06T05:26:41.743Z,48.92
2023-07-06T05:27:41.792Z,47.86
2023-07-06T05:28:41.788Z,47.24
2023-07-06T05:29:41.872Z,49.85
2023-07-06T05:30:41.867Z,49.10
2023-07-06T05:31:41.869Z,48.76
2023-07-06T05:32:42.015Z,46.77
2023-07-06T05:33:41.985Z,49.05
2023-07-06T05:34:42.005Z,49.50
2023-07-06T05:35:42.018Z,48.69
2023-07-06T05:36:42.063Z,49.06
2023-07-06T05:37:42.034Z,50.17
2023-07-06T05:38:42.174Z,47.70
2023-07-06T05:39:42.181Z,49.32
2023-07-06T05:40:42.156Z,48.46
2023-07-06T05:41:42.265Z,47.42
2023-07-06T05:42:42.211Z,50.85
2023-07-06T05:43:42.205Z,47.98
2023-07-06T05:44:42.276Z,49.51
2023-07-06T05:45:42.275Z,52.46
2023-07-06T05:46:42.329Z,50.55
2023-07-06T05:47:42.363Z,49.02
2023-07-06T05:48:42.349Z,51.18
2023-07-06T05:49:42.403Z,49.16
2023-07-06T05:50:42.455Z,49.79
2023-07-06T05:51:42.454Z,49.45
2023-07-06T05:52:42.469Z,53.38
2023-07-06T05:53:42.482Z,52.44
2023-07-06T05:54:42.541Z,50.64
2023-07-06T05:55:42.532Z,53.23
2023-07-06T05:56:42.563Z,53.68
2023-07-06T05:57:42.598Z,53.77
2023-07-06T05:58:42.597Z,55.31
2023-07-06T05:59:42.691Z,53.41
2023-07-06T06:00:42.689Z,53.52
2023-07-06T06:01:42.715Z,55.75
2023-07-06T06:02:42.708Z,55.62
2023-07-06T06:03:42.732Z,57.23
2023-07-06T06:04:42.688Z,55.36
2023-07-06T06:05:42.751Z,55.32
2023-07-06T06:06:42.760Z,57.71
2023-07-06T06:07:42.782Z,56.64
2023-07-06T06:08:42.849Z,58.62
2023-07-06T06:09:43.267Z,58.56
2023-07-06T06:10:42.802Z,57.75
2023-07-06T06:11:42.866Z,57.57
2023-07-06T06:12:42.856Z,59.98
2023-07-06T06:13:43.007Z,58.42
2023-07-06T06:14:42.948Z,58.94
2023-07-06T06:15:42.940Z,59.62
2023-07-06T06:16:43.024Z,60.62
2023-07-06T06:17:43.003Z,59.41
2023-07-06T06:18:43.993Z,56.57
2023-07-06T06:19:43.061Z,58.51
2023-07-06T06:20:43.065Z,60.28
2023-07-06T06:21:43.052Z,58.34
2023-07-06T06:22:43.124Z,59.91
2023-07-06T06:23:43.102Z,60.99
2023-07-06T06:24:43.113Z,63.33
2023-07-06T06:25:43.151Z,59.56
2023-07-06T06:26:43.209Z,60.46
2023-07-06T06:27:43.294Z,59.54
2023-07-06T06:28:43.181Z,60.74
2023-07-06T06:29:43.271Z,61.94
2023-07-06T06:30:43.249Z,63.06
2023-07-06T06:31:43.384Z,63.63
2023-07-06T06:32:43.510Z,61.79
2023-07-06T06:33:43.401Z,64.23
2023-07-06T06:34:43.472Z,61.86
2023-07-06T06:35:43.470Z,62.80
2023-07-06T06:36:43.484Z,63.48
2023-07-06T06:37:43.480Z,68.00
2023-07-06T06:38:43.636Z,67.10
2023-07-06T06:39:43.690Z,67.95
2023-07-06T06:40:43.700Z,71.41
2023-07-06T06:41:43.694Z,71.32
2023-07-06T06:42:43.695Z,74.15
2023-07-06T06:43:43.644Z,73.85
2023-07-06T06:44:43.721Z,77.24
2023-07-06T06:45:43.769Z,81.03
2023-07-06T06:46:43.831Z,83.40
2023-07-06T06:47:43.909Z,82.20
2023-07-06T06:48:43.932Z,81.38
2023-07-06T06:49:43.955Z,82.03
2023-07-06T06:50:43.955Z,80.47
2023-07-06T06:51:44.005Z,78.54
2023-07-06T06:52:44.053Z,77.45
2023-07-06T06:53:44.047Z,75.44
2023-07-06T06:54:44.120Z,74.33
2023-07-06T06:55:44.204Z,73.84
2023-07-06T06:56:44.144Z,71.14
2023-07-06T06:57:44.201Z,71.28
2023-07-06T06:58:45.089Z,70.15
2023-07-06T06:59:44.215Z,68.54
2023-07-06T07:00:44.210Z,65.45
2023-07-06T07:01:44.332Z,65.30
2023-07-06T07:02:44.571Z,62.46
2023-07-06T07:03:44.402Z,62.61
2023-07-06T07:04:44.349Z,60.43
2023-07-06T07:05:44.420Z,57.86
2023-07-06T07:06:44.486Z,57.68
2023-07-06T07:07:44.489Z,56.81
2023-07-06T07:08:45.296Z,54.16
2023-07-06T07:09:44.585Z,52.60
2023-07-06T07:10:44.630Z,51.98
2023-07-06T07:11:44.717Z,51.98
2023-07-06T07:12:44.808Z,50.76
2023-07-06T07:13:44.934Z,49.98
2023-07-06T07:14:44.921Z,47.75
2023-07-06T07:15:44.984Z,49.44
2023-07-06T07:16:45.366Z,45.83
2023-07-06T07:17:45.118Z,44.88
2023-07-06T07:18:45.169Z,45.67
2023-07-06T07:19:47.191Z,44.77
2023-07-06T07:20:45.215Z,44.34
2023-07-06T07:21:45.300Z,45.31
2023-07-06T07:22:45.189Z,46.05
2023-07-06T07:23:45.193Z,46.07
2023-07-06T07:24:45.324Z,45.87
2023-07-06T07:25:45.205Z,45.73
2023-07-06T07:26:45.154Z,46.52
2023-07-06T07:27:45.150Z,47.29
2023-07-06T07:28:45.371Z,45.31
2023-07-06T07:29:45.148Z,44.41
2023-07-06T07:30:45.119Z,41.67
2023-07-06T07:31:45.174Z,38.63
2023-07-06T07:32:45.238Z,39.83
2023-07-06T07:33:45.171Z,35.75
2023-07-06T07:34:45.180Z,36.81
2023-07-06T07:35:45.109Z,36.31
2023-07-06T07:36:45.129Z,35.41
2023-07-06T07:37:45.108Z,33.45
2023-07-06T07:38:45.122Z,30.11
2023-07-06T07:39:45.105Z,32.56
2023-07-06T07:40:45.317Z,31.79
2023-07-06T07:41:45.114Z,33.42
2023-07-06T07:42:45.067Z,31.93
2023-07-06T07:43:45.429Z,31.92
2023-07-06T07:44:45.074Z,29.85
2023-07-06T07:45:45.083Z,26.70
2023-07-06T07:46:45.066Z,26.05
2023-07-06T07:47:45.377Z,27.98
2023-07-06T07:48:45.342Z,25.08
2023-07-06T07:49:45.070Z,26.85
2023-07-06T07:50:45.013Z,24.76
2023-07-06T07:51:45.034Z,30.24
2023-07-06T07:52:45.088Z,31.38
2023-07-06T07:53:44.999Z,32.45
2023-07-06T07:54:44.992Z,30.59
2023-07-06T07:55:44.999Z,29.36
2023-07-06T07:56:45.012Z,25.06
2023-07-06T07:57:45.025Z,28.13
2023-07-06T07:58:44.987Z,25.00
2023-07-06T07:59:44.965Z,28.23
2023-07-06T08:00:45.037Z,25.27
2023-07-06T08:01:44.960Z,26.86
2023-07-06T08:02:45.049Z,31.10
2023-07-06T08:03:45.342Z,29.09
2023-07-06T08:05:45.027Z,30.79
2023-07-06T08:06:45.084Z,30.72
2023-07-06T08:07:45.181Z,33.43
2023-07-06T08:08:45.240Z,30.40
2023-07-06T08:09:45.549Z,29.59
2023-07-06T08:10:45.306Z,32.76
2023-07-06T08:11:45.374Z,27.60
2023-07-06T08:12:45.530Z,25.96
2023-07-06T08:13:45.432Z,25.77
2023-07-06T08:14:45.446Z,25.05
2023-07-06T08:15:45.487Z,28.78
2023-07-06T08:16:45.410Z,27.02
2023-07-06T08:17:45.398Z,25.60
2023-07-06T08:18:45.471Z,28.78
2023-07-06T08:20:17.715Z,32.99
2023-07-06T08:21:01.134Z,33.06
2023-07-06T08:22:46.466Z,33.30
2023-07-06T08:23:45.505Z,34.29
2023-07-06T08:24:45.511Z,35.50
2023-07-06T08:25:45.528Z,36.31
2023-07-06T08:26:45.445Z,38.33
2023-07-06T08:27:45.470Z,37.69
2023-07-06T08:28:45.435Z,38.65
2023-07-06T08:29:45.446Z,39.66
2023-07-06T08:30:45.443Z,39.58
2023-07-06T08:31:45.477Z,37.97
2023-07-06T08:32:45.512Z,34.82
2023-07-06T08:33:46.388Z,36.55
2023-07-06T08:34:45.415Z,35.57
2023-07-06T08:35:45.389Z,32.19
2023-07-06T08:36:45.390Z,25.33
2023-07-06T08:37:45.393Z,25.61
2023-07-06T08:38:45.435Z,25.97
2023-07-06T08:39:45.331Z,26.55
2023-07-06T08:40:45.434Z,25.60
2023-07-06T08:41:45.475Z,28.19
2023-07-06T08:42:45.329Z,30.98
2023-07-06T08:43:45.401Z,28.06
2023-07-06T08:44:45.340Z,26.63
2023-07-06T08:45:45.367Z,26.11
2023-07-06T08:46:45.463Z,25.36
2023-07-06T08:47:45.383Z,28.31
2023-07-06T08:48:45.363Z,29.08
2023-07-06T08:49:45.606Z,26.62
2023-07-06T08:50:45.613Z,26.11
2023-07-06T08:51:45.283Z,26.61
2023-07-06T08:52:45.723Z,26.93
2023-07-06T08:53:45.285Z,26.99
2023-07-06T08:54:45.301Z,28.75
2023-07-06T08:55:45.409Z,27.98
2023-07-06T08:56:45.241Z,27.67
2023-07-06T08:57:45.259Z,25.16
2023-07-06T08:58:45.215Z,26.98
2023-07-06T08:59:45.224Z,30.85
2023-07-06T09:00:45.241Z,35.66
2023-07-06T09:01:45.333Z,30.41
2023-07-06T09:02:45.370Z,33.37
2023-07-06T09:03:45.395Z,38.27
2023-07-06T09:04:45.221Z,43.69
2023-07-06T09:05:45.165Z,31.43
2023-07-06T09:06:45.176Z,31.14
2023-07-06T09:07:45.190Z,30.52
2023-07-06T09:08:46.989Z,29.71
2023-07-06T09:09:45.367Z,31.05
2023-07-06T09:10:45.446Z,34.41
2023-07-06T09:11:45.444Z,24.98
2023-07-06T09:12:45.541Z,25.00
2023-07-06T09:13:45.565Z,25.70
2023-07-06T09:14:45.654Z,33.49
2023-07-06T09:15:45.616Z,37.28
2023-07-06T09:16:45.666Z,40.68
2023-07-06T09:17:45.807Z,39.39
2023-07-06T09:18:46.017Z,37.54
2023-07-06T09:19:45.797Z,44.03
2023-07-06T09:20:46.148Z,37.35
2023-07-06T09:21:45.783Z,36.91
2023-07-06T09:22:45.920Z,36.40
2023-07-06T09:23:45.946Z,36.46
2023-07-06T09:24:45.961Z,38.86
2023-07-06T09:25:46.024Z,38.96
2023-07-06T09:26:46.095Z,37.12
2023-07-06T09:27:46.231Z,37.73
2023-07-06T09:28:46.148Z,44.53
2023-07-06T09:29:46.244Z,49.95
2023-07-06T09:30:46.286Z,43.88
2023-07-06T09:31:46.324Z,43.46
2023-07-06T09:32:46.398Z,42.54
2023-07-06T09:33:46.884Z,44.72
2023-07-06T09:34:46.731Z,45.76
2023-07-06T09:35:46.419Z,46.22
2023-07-06T09:36:46.725Z,48.76
2023-07-06T09:37:46.511Z,50.06
2023-07-06T09:38:46.460Z,51.87
2023-07-06T09:39:47.349Z,52.12
2023-07-06T09:40:46.532Z,55.29
2023-07-06T09:41:46.541Z,59.20
2023-07-06T09:42:46.659Z,65.10
2023-07-06T09:43:46.677Z,64.60
2023-07-06T09:44:46.661Z,67.25
2023-07-06T09:45:46.693Z,73.39
2023-07-06T09:46:47.042Z,76.12
2023-07-06T09:47:46.816Z,76.36
2023-07-06T09:48:46.707Z,75.85
2023-07-06T09:49:46.801Z,75.48
2023-07-06T09:50:46.810Z,76.06
2023-07-06T09:51:47.226Z,76.98
2023-07-06T09:52:46.846Z,84.02
2023-07-06T09:53:46.841Z,81.03
2023-07-06T09:54:47.247Z,78.19
2023-07-06T09:55:46.951Z,73.90
2023-07-06T09:56:46.910Z,71.97
2023-07-06T09:57:47.048Z,63.87
2023-07-06T09:58:47.076Z,52.10
2023-07-06T09:59:47.094Z,57.38
2023-07-06T10:00:47.098Z,43.11
2023-07-06T10:01:47.194Z,30.02
2023-07-06T10:02:47.320Z,33.08
2023-07-06T10:03:47.226Z,35.54
2023-07-06T10:04:47.247Z,26.19
2023-07-06T10:05:47.743Z,23.18
2023-07-06T10:06:47.445Z,33.81
2023-07-06T10:07:47.625Z,38.04
2023-07-06T10:08:47.450Z,36.11
2023-07-06T10:09:47.489Z,41.25
2023-07-06T10:10:47.575Z,26.85
2023-07-06T10:11:47.998Z,34.36
2023-07-06T10:12:47.538Z,29.97
2023-07-06T10:13:47.653Z,35.87
2023-07-06T10:14:47.652Z,32.69
2023-07-06T10:15:47.578Z,24.51
2023-07-06T10:16:47.756Z,25.40
2023-07-06T10:17:47.779Z,32.85
2023-07-06T10:18:47.700Z,38.79
2023-07-06T10:19:47.759Z,37.80
2023-07-06T10:20:47.742Z,39.19
2023-07-06T10:21:47.734Z,41.83
2023-07-06T10:22:47.751Z,39.39
2023-07-06T10:23:48.158Z,37.60
2023-07-06T10:24:47.856Z,40.46
2023-07-06T10:25:47.772Z,43.02
2023-07-06T10:26:47.814Z,51.09
2023-07-06T10:27:48.011Z,55.44
2023-07-06T10:28:47.808Z,63.53
2023-07-06T10:29:48.349Z,64.05
2023-07-06T10:30:47.787Z,69.07
2023-07-06T10:31:47.884Z,72.01
2023-07-06T10:32:47.964Z,64.09
2023-07-06T10:33:48.033Z,66.86
2023-07-06T10:34:48.235Z,41.74
2023-07-06T10:35:47.993Z,27.47
2023-07-06T10:36:48.038Z,32.70
2023-07-06T10:37:48.045Z,34.60
2023-07-06T10:38:48.160Z,30.58
2023-07-06T10:39:48.168Z,34.22
2023-07-06T10:40:48.074Z,23.68
2023-07-06T10:41:48.417Z,39.01
2023-07-06T10:42:48.181Z,42.45
2023-07-06T10:43:48.105Z,43.27
2023-07-06T10:44:48.243Z,34.84
2023-07-06T10:45:48.254Z,32.23
2023-07-06T10:46:48.141Z,25.00
2023-07-06T10:47:48.221Z,34.52
2023-07-06T10:48:48.213Z,30.70
2023-07-06T10:49:48.220Z,39.80
2023-07-06T10:50:48.227Z,51.44
2023-07-06T10:51:48.258Z,48.75
2023-07-06T10:52:48.356Z,38.11
2023-07-06T10:53:48.264Z,36.36
2023-07-06T10:54:48.308Z,51.50
2023-07-06T10:55:48.381Z,56.46
2023-07-06T10:56:48.373Z,54.25
2023-07-06T10:57:48.410Z,57.83
2023-07-06T10:58:48.281Z,55.42
2023-07-06T10:59:48.329Z,37.05
2023-07-06T11:00:48.304Z,23.84
2023-07-06T11:01:48.472Z,24.86
2023-07-06T11:02:48.468Z,40.96
2023-07-06T11:03:48.448Z,23.23
2023-07-06T11:04:48.432Z,31.68
2023-07-06T11:05:48.841Z,44.88
2023-07-06T11:06:48.443Z,54.29
2023-07-06T11:07:48.461Z,56.11
2023-07-06T11:08:48.493Z,45.35
2023-07-06T11:09:48.589Z,45.20
2023-07-06T11:10:48.624Z,24.89
2023-07-06T11:11:48.697Z,36.77
2023-07-06T11:12:49.784Z,20.69
2023-07-06T11:13:48.746Z,24.22
2023-07-06T11:14:48.724Z,30.12
2023-07-06T11:15:49.059Z,27.75
2023-07-06T11:16:48.888Z,28.37
2023-07-06T11:17:48.996Z,39.20
2023-07-06T11:18:48.934Z,37.71
2023-07-06T11:19:48.994Z,19.34
2023-07-06T11:20:49.002Z,28.06
2023-07-06T11:21:49.060Z,32.95
2023-07-06T11:22:49.132Z,55.90
2023-07-06T11:23:49.175Z,47.06
2023-07-06T11:24:49.284Z,42.39
2023-07-06T11:25:49.289Z,44.20
2023-07-06T11:26:49.388Z,50.77
2023-07-06T11:27:49.410Z,64.21
2023-07-06T11:28:49.456Z,79.89
2023-07-06T11:29:49.568Z,87.47
2023-07-06T11:30:49.556Z,68.82
2023-07-06T11:31:49.753Z,55.20
2023-07-06T11:32:49.690Z,57.35
2023-07-06T11:33:49.656Z,52.79
2023-07-06T11:34:49.733Z,47.06
2023-07-06T11:35:49.704Z,57.15
2023-07-06T11:36:49.781Z,60.73
2023-07-06T11:37:58.359Z,38.91
2023-07-06T11:38:50.811Z,38.58
2023-07-06T11:39:49.814Z,40.66
2023-07-06T11:40:49.742Z,50.00
2023-07-06T11:41:49.837Z,64.71
2023-07-06T11:42:49.757Z,61.48
2023-07-06T11:43:49.747Z,72.92
2023-07-06T11:44:50.091Z,68.92
2023-07-06T11:45:49.748Z,62.30
2023-07-06T11:46:49.754Z,62.57
2023-07-06T11:47:49.980Z,61.79
2023-07-06T11:48:49.684Z,51.69
2023-07-06T11:49:49.783Z,45.97
2023-07-06T11:50:49.803Z,51.24
2023-07-06T11:51:49.872Z,43.95
2023-07-06T11:52:49.929Z,27.31
2023-07-06T11:53:49.998Z,28.07
2023-07-06T11:54:50.016Z,57.09
2023-07-06T11:55:50.124Z,76.79
2023-07-06T11:56:50.147Z,90.28
2023-07-06T11:57:50.178Z,92.43
2023-07-06T11:58:50.166Z,71.47
2023-07-06T11:59:50.177Z,83.76
2023-07-06T12:00:50.530Z,69.72
2023-07-06T12:01:50.668Z,59.87
2023-07-06T12:02:50.438Z,45.19
2023-07-06T12:03:50.467Z,30.60
2023-07-06T12:04:50.446Z,25.27
2023-07-06T12:05:52.089Z,39.06
2023-07-06T12:06:50.494Z,68.88
2023-07-06T12:07:50.564Z,75.77
2023-07-06T12:08:50.498Z,70.45
2023-07-06T12:09:50.507Z,63.39
2023-07-06T12:10:50.568Z,69.66
2023-07-06T12:11:50.482Z,70.94
2023-07-06T12:12:50.540Z,81.43
2023-07-06T12:13:50.602Z,88.58
2023-07-06T12:14:50.551Z,63.11
2023-07-06T12:15:50.600Z,57.63
2023-07-06T12:16:50.569Z,62.25
2023-07-06T12:17:50.646Z,59.30
2023-07-06T12:18:50.994Z,49.91
2023-07-06T12:19:50.698Z,49.85
2023-07-06T12:20:50.707Z,56.44
2023-07-06T12:21:50.702Z,76.47
2023-07-06T12:22:50.825Z,76.68
2023-07-06T12:23:50.819Z,87.54
2023-07-06T12:24:50.936Z,77.43
2023-07-06T12:25:50.990Z,89.01
2023-07-06T12:26:50.949Z,97.21
2023-07-06T12:27:50.879Z,104.31
2023-07-06T12:28:51.876Z,109.53
2023-07-06T12:29:50.873Z,109.94
2023-07-06T12:30:50.928Z,75.71
2023-07-06T12:31:50.867Z,86.13
2023-07-06T12:32:50.826Z,71.04
2023-07-06T12:33:50.887Z,73.94
2023-07-06T12:34:50.853Z,92.53
2023-07-06T12:35:50.912Z,96.89
2023-07-06T12:36:50.912Z,91.52
2023-07-06T12:37:50.809Z,98.53
2023-07-06T12:38:52.103Z,103.70
2023-07-06T12:39:50.931Z,95.10
2023-07-06T12:40:51.011Z,96.49
2023-07-06T12:41:51.220Z,105.29
2023-07-06T12:42:51.063Z,110.78
2023-07-06T12:43:51.155Z,115.96
2023-07-06T12:44:51.459Z,110.00
2023-07-06T12:45:51.183Z,108.92
2023-07-06T12:46:51.284Z,114.33
2023-07-06T12:47:51.217Z,119.43
2023-07-06T12:48:51.406Z,120.28
2023-07-06T12:49:56.895Z,119.02
2023-07-06T12:50:52.634Z,108.25
2023-07-06T12:51:51.344Z,105.60
2023-07-06T12:52:51.321Z,106.25
2023-07-06T12:53:51.598Z,95.57
2023-07-06T12:54:51.334Z,104.14